Time;durP1;ratioP1;P1;durP2;ratioP2;P2;SDS_P1;SDS_P2;PMS_P1;PMS_P2;Temp;Humidity;BMP_temperature;BMP_pressure;BME280_temperature;BME280_humidity;BME280_pressure;Samples;Min_cycle;Max_cycle;Signal;HPM_P1;HPM_P2
2022/12/07 00:01:31;;;;;;;7.43;2.30;;;3.60;99.90;;;;;;5071464;28;20037;-36
2022/12/07 00:04:05;;;;;;;7.28;2.70;;;3.60;99.90;;;;;;5071764;28;20036;-36
2022/12/07 00:06:37;;;;;;;10.20;3.42;;;3.60;99.90;;;;;;5071326;28;20322;-36
2022/12/07 00:09:04;;;;;;;5.93;2.20;;;3.60;99.90;;;;;;5071429;28;20527;-36
2022/12/07 00:11:30;;;;;;;7.60;2.10;;;3.50;99.90;;;;;;5071077;28;20028;-36
2022/12/07 00:13:59;;;;;;;6.70;2.60;;;3.50;99.90;;;;;;5071397;28;20033;-36
2022/12/07 00:16:27;;;;;;;5.15;2.60;;;3.50;99.90;;;;;;5071136;28;20071;-36
2022/12/07 00:18:53;;;;;;;6.20;3.67;;;3.50;99.90;;;;;;5070793;28;20040;-36
2022/12/07 00:21:22;;;;;;;6.20;4.13;;;3.40;99.90;;;;;;5071154;28;20039;-37
2022/12/07 00:23:49;;;;;;;12.77;6.32;;;3.40;99.90;;;;;;5071102;28;20115;-37
2022/12/07 00:26:22;;;;;;;16.33;10.10;;;3.40;99.90;;;;;;5064570;28;20109;-36
2022/12/07 00:28:50;;;;;;;17.38;10.98;;;3.30;99.90;;;;;;5070866;28;20036;-36
2022/12/07 00:31:17;;;;;;;15.68;9.10;;;3.30;99.90;;;;;;5060890;28;20056;-37
2022/12/07 00:33:44;;;;;;;17.75;8.95;;;3.30;99.90;;;;;;5070794;28;20252;-35
2022/12/07 00:36:12;;;;;;;13.85;8.00;;;3.20;99.90;;;;;;5070890;28;20029;-36
2022/12/07 00:38:39;;;;;;;12.70;7.28;;;3.20;99.90;;;;;;5070738;28;20185;-37
2022/12/07 00:41:12;;;;;;;10.55;6.82;;;3.30;99.90;;;;;;5070575;28;20756;-37
2022/12/07 00:43:38;;;;;;;9.00;5.18;;;3.30;99.90;;;;;;5071987;28;20498;-36
2022/12/07 00:46:05;;;;;;;10.95;4.88;;;3.30;99.90;;;;;;5070394;28;20047;-36
2022/12/07 00:48:30;;;;;;;12.70;5.13;;;3.30;99.90;;;;;;5070460;28;20040;-36
2022/12/07 00:50:56;;;;;;;8.43;4.25;;;3.30;99.90;;;;;;5070676;28;20120;-36
2022/12/07 00:53:22;;;;;;;9.70;4.47;;;3.30;99.90;;;;;;5071775;28;20033;-36
2022/12/07 00:55:48;;;;;;;9.57;4.22;;;3.40;99.90;;;;;;5070775;28;20448;-36
2022/12/07 00:58:14;;;;;;;10.93;3.95;;;3.40;99.90;;;;;;5053616;28;20036;-36
2022/12/07 01:00:41;;;;;;;7.05;3.17;;;3.40;99.90;;;;;;5062104;28;20039;-37
2022/12/07 01:03:09;;;;;;;8.60;2.85;;;3.40;99.90;;;;;;5067708;28;20040;-36
2022/12/07 01:05:35;;;;;;;6.15;3.60;;;3.40;99.90;;;;;;5070565;28;20040;-37
2022/12/07 01:08:01;;;;;;;7.10;4.00;;;3.40;99.90;;;;;;5067959;28;20044;-37
2022/12/07 01:10:27;;;;;;;7.30;3.85;;;3.40;99.90;;;;;;5068574;28;20455;-37
2022/12/07 01:12:53;;;;;;;10.43;5.57;;;3.40;99.90;;;;;;5069094;28;20043;-37
2022/12/07 01:15:19;;;;;;;15.50;6.25;;;3.30;99.90;;;;;;5064931;28;20399;-36
2022/12/07 01:17:44;;;;;;;16.75;6.93;;;3.30;99.90;;;;;;5070493;28;20189;-36
2022/12/07 01:20:11;;;;;;;14.57;7.45;;;3.20;99.90;;;;;;5070169;28;20103;-36
2022/12/07 01:22:38;;;;;;;13.90;7.38;;;3.30;99.90;;;;;;5069465;28;20040;-36
2022/12/07 01:25:05;;;;;;;11.65;7.28;;;3.20;99.90;;;;;;5068294;28;20040;-36
2022/12/07 01:27:32;;;;;;;13.15;6.10;;;3.30;99.90;;;;;;5068702;28;20408;-37
2022/12/07 01:29:57;;;;;;;11.02;5.10;;;3.30;99.90;;;;;;5070186;28;20067;-36
2022/12/07 01:32:23;;;;;;;12.52;4.70;;;3.30;99.90;;;;;;5048226;28;20101;-36
2022/12/07 01:34:49;;;;;;;9.70;4.32;;;3.40;99.90;;;;;;5063661;28;20399;-36
2022/12/07 01:37:14;;;;;;;10.57;4.18;;;3.40;99.90;;;;;;5069111;28;20040;-36
2022/12/07 01:39:41;;;;;;;8.88;3.60;;;3.50;99.90;;;;;;5069560;28;20036;-36
2022/12/07 01:42:10;;;;;;;12.85;3.83;;;3.50;99.90;;;;;;5066458;28;20068;-37
2022/12/07 01:45:13;;;;;;;7.25;3.40;;;3.60;99.90;;;;;;5069862;28;20054;-36
2022/12/07 01:47:40;;;;;;;6.93;3.10;;;3.50;99.90;;;;;;5066382;28;20032;-36
2022/12/07 01:50:07;;;;;;;5.88;2.70;;;3.50;99.90;;;;;;5069712;28;20043;-36
2022/12/07 01:52:35;;;;;;;9.95;3.38;;;3.50;99.90;;;;;;5069847;28;20033;-37
2022/12/07 01:55:06;;;;;;;4.88;2.50;;;3.50;99.90;;;;;;5053127;28;20098;-36
2022/12/07 01:57:35;;;;;;;9.55;2.85;;;3.50;99.90;;;;;;5070177;28;20513;-36
2022/12/07 02:00:02;;;;;;;8.18;2.50;;;3.50;99.90;;;;;;5069638;28;20029;-37
2022/12/07 02:02:33;;;;;;;8.70;2.72;;;3.50;99.90;;;;;;5069543;28;20036;-37
2022/12/07 02:05:02;;;;;;;7.85;2.60;;;3.50;99.90;;;;;;5069855;28;20036;-36
2022/12/07 02:07:28;;;;;;;7.18;2.50;;;3.60;99.90;;;;;;5069800;28;20378;-36
2022/12/07 02:09:54;;;;;;;6.65;2.17;;;3.60;99.90;;;;;;5065739;28;20043;-37
2022/12/07 02:12:22;;;;;;;8.32;2.42;;;3.60;99.90;;;;;;5069640;28;20032;-36
2022/12/07 02:14:48;;;;;;;6.55;2.28;;;3.60;99.90;;;;;;5066947;28;20484;-37
2022/12/07 02:17:43;;;;;;;7.05;1.98;;;3.70;99.90;;;;;;5069694;28;20036;-37
2022/12/07 02:20:09;;;;;;;9.05;2.42;;;3.70;99.90;;;;;;5062383;28;20486;-37
2022/12/07 02:22:55;;;;;;;10.48;2.28;;;3.70;99.90;;;;;;5060882;28;20047;-36
2022/12/07 02:25:43;;;;;;;10.88;1.95;;;3.70;99.90;;;;;;5069286;28;20037;-36
2022/12/07 02:28:36;;;;;;;5.97;1.77;;;3.80;99.90;;;;;;5052727;28;20048;-37
2022/12/07 02:31:15;;;;;;;4.57;1.48;;;3.60;99.90;;;;;;5058269;28;20045;-37
2022/12/07 02:33:50;;;;;;;4.22;1.40;;;3.60;99.90;;;;;;5058896;28;20166;-37
2022/12/07 02:36:19;;;;;;;7.15;1.95;;;3.50;99.90;;;;;;5069364;28;20048;-37
2022/12/07 02:39:07;;;;;;;5.53;1.77;;;3.40;99.90;;;;;;5069135;28;20037;-36
2022/12/07 02:41:43;;;;;;;6.00;1.73;;;3.40;99.90;;;;;;5069367;28;20032;-37
2022/12/07 02:44:20;;;;;;;5.50;1.92;;;3.30;99.90;;;;;;5069298;28;20043;-37
2022/12/07 02:46:54;;;;;;;5.57;2.13;;;3.30;99.90;;;;;;5068878;28;20147;-36
2022/12/07 02:49:23;;;;;;;6.65;2.05;;;3.20;99.90;;;;;;5069045;28;20037;-37
2022/12/07 02:51:49;;;;;;;6.57;2.28;;;3.10;99.90;;;;;;5052264;28;20040;-36
2022/12/07 02:54:17;;;;;;;5.70;2.22;;;3.10;99.90;;;;;;5069194;28;20562;-37
2022/12/07 02:56:43;;;;;;;8.77;2.40;;;3.10;99.90;;;;;;5073287;28;20037;-36
2022/12/07 02:59:40;;;;;;;7.35;2.03;;;3.10;99.90;;;;;;5071096;28;20545;-36
2022/12/07 03:02:21;;;;;;;6.72;2.33;;;3.00;99.90;;;;;;5068338;28;20514;-36
2022/12/07 03:05:00;;;;;;;6.25;2.08;;;3.00;99.90;;;;;;5065494;28;20094;-36
2022/12/07 03:07:42;;;;;;;6.25;1.85;;;3.00;99.90;;;;;;5071280;28;20040;-36
2022/12/07 03:10:24;;;;;;;4.68;2.17;;;3.00;99.90;;;;;;5068109;28;20028;-37
2022/12/07 03:12:53;;;;;;;6.55;2.00;;;3.00;99.90;;;;;;5070033;28;20120;-36
2022/12/07 03:15:25;;;;;;;7.95;2.25;;;3.10;99.90;;;;;;5072614;28;20130;-36
2022/12/07 03:17:52;;;;;;;4.32;1.77;;;3.10;99.90;;;;;;5072215;28;20044;-37
2022/12/07 03:20:21;;;;;;;5.57;2.13;;;3.10;99.90;;;;;;5072388;28;20387;-36
2022/12/07 03:22:47;;;;;;;5.40;2.05;;;3.20;99.90;;;;;;5070758;28;20032;-36
2022/12/07 03:25:16;;;;;;;9.15;1.65;;;3.20;99.90;;;;;;5061489;28;20106;-36
2022/12/07 03:28:05;;;;;;;6.47;1.80;;;3.20;99.90;;;;;;5072506;28;20047;-36
2022/12/07 03:30:42;;;;;;;4.90;1.88;;;3.20;99.90;;;;;;5070680;28;20040;-36
2022/12/07 03:33:23;;;;;;;5.88;1.45;;;3.20;99.90;;;;;;5072037;28;20111;-37
2022/12/07 03:36:19;;;;;;;5.68;1.70;;;3.20;99.90;;;;;;5065196;28;20028;-37
2022/12/07 03:39:03;;;;;;;4.88;1.60;;;3.20;99.90;;;;;;5071225;28;20047;-36
2022/12/07 03:41:33;;;;;;;8.80;2.05;;;3.10;99.90;;;;;;5072508;28;20433;-36
2022/12/07 03:43:59;;;;;;;8.32;2.17;;;3.10;99.90;;;;;;5068693;28;20036;-37
2022/12/07 03:46:44;;;;;;;8.32;2.33;;;3.20;99.90;;;;;;5063577;28;20044;-37
2022/12/07 03:49:28;;;;;;;5.35;1.48;;;3.20;99.90;;;;;;5068859;28;20490;-36
2022/12/07 03:52:18;;;;;;;4.05;1.60;;;3.20;99.90;;;;;;5066475;28;20190;-36
2022/12/07 03:54:47;;;;;;;6.60;1.77;;;3.30;99.90;;;;;;5064393;28;20497;-36
2022/12/07 03:57:14;;;;;;;5.63;1.63;;;3.30;99.90;;;;;;5064772;28;20033;-36
2022/12/07 03:59:40;;;;;;;8.55;1.70;;;3.30;99.90;;;;;;5063473;28;20043;-36
2022/12/07 04:02:10;;;;;;;10.13;1.77;;;3.20;99.90;;;;;;5071930;28;20031;-36
2022/12/07 04:04:36;;;;;;;6.78;1.50;;;3.20;99.90;;;;;;5071007;28;20496;-36
2022/12/07 04:07:02;;;;;;;4.88;1.25;;;3.20;99.90;;;;;;5071460;28;20036;-36
2022/12/07 04:09:28;;;;;;;7.88;1.90;;;3.10;99.90;;;;;;5071011;28;20039;-36
2022/12/07 04:11:54;;;;;;;7.00;1.70;;;3.10;99.90;;;;;;5071398;28;20040;-36
2022/12/07 04:14:20;;;;;;;7.30;1.70;;;3.10;99.90;;;;;;5071268;28;20098;-36
2022/12/07 04:16:46;;;;;;;5.30;1.70;;;3.00;99.90;;;;;;5071372;28;20072;-37
2022/12/07 04:19:12;;;;;;;12.18;1.98;;;3.00;99.90;;;;;;5071235;28;20028;-36
2022/12/07 04:21:38;;;;;;;6.53;1.20;;;2.90;99.90;;;;;;5054461;28;20554;-37
2022/12/07 04:24:05;;;;;;;5.78;2.05;;;2.90;99.90;;;;;;5071093;28;20115;-36
2022/12/07 04:26:30;;;;;;;5.38;1.80;;;2.80;99.90;;;;;;5052959;28;20128;-36
2022/12/07 04:28:56;;;;;;;6.93;1.80;;;2.80;99.90;;;;;;5070869;28;20131;-37
2022/12/07 04:31:22;;;;;;;7.95;1.70;;;2.70;99.90;;;;;;5069570;28;20044;-37
2022/12/07 04:33:51;;;;;;;9.27;1.60;;;2.70;99.90;;;;;;5064101;28;20052;-36
2022/12/07 04:36:17;;;;;;;5.57;1.63;;;2.70;99.90;;;;;;5071333;28;20106;-36
2022/12/07 04:38:42;;;;;;;4.03;1.48;;;2.80;99.90;;;;;;5068905;28;20476;-37
2022/12/07 04:41:09;;;;;;;9.43;1.55;;;2.80;99.90;;;;;;5066749;28;20032;-36
2022/12/07 04:43:35;;;;;;;4.70;1.30;;;2.70;99.90;;;;;;5070128;28;20538;-36
2022/12/07 04:46:02;;;;;;;4.40;1.77;;;2.70;99.90;;;;;;5070929;28;20047;-35
2022/12/07 04:48:28;;;;;;;8.20;1.73;;;2.60;99.90;;;;;;5070609;28;20501;-36
2022/12/07 04:50:54;;;;;;;9.60;2.00;;;2.60;99.90;;;;;;5070777;28;20040;-36
2022/12/07 04:53:19;;;;;;;5.80;1.67;;;2.50;99.90;;;;;;5065731;28;20443;-36
2022/12/07 04:55:46;;;;;;;9.75;1.85;;;2.50;99.90;;;;;;5070327;28;20045;-36
2022/12/07 04:58:12;;;;;;;7.30;1.75;;;2.50;99.90;;;;;;5069659;28;20044;-36
2022/12/07 05:00:39;;;;;;;8.15;1.80;;;2.50;99.90;;;;;;5070537;28;20060;-36
2022/12/07 05:03:05;;;;;;;9.02;2.47;;;2.50;99.90;;;;;;5070496;28;20494;-36
2022/12/07 05:05:30;;;;;;;7.68;1.90;;;2.50;99.90;;;;;;5070623;28;20043;-37
2022/12/07 05:07:56;;;;;;;3.63;1.27;;;2.60;99.90;;;;;;5069863;28;20087;-36
2022/12/07 05:10:22;;;;;;;10.15;2.17;;;2.70;99.90;;;;;;5063370;28;20048;-36
2022/12/07 05:12:51;;;;;;;7.90;1.98;;;2.70;99.90;;;;;;5069822;28;20033;-36
2022/12/07 05:15:16;;;;;;;3.75;1.80;;;2.70;99.90;;;;;;5063189;28;20037;-36
2022/12/07 05:17:42;;;;;;;10.02;2.58;;;2.70;99.90;;;;;;5068353;28;20032;-36
2022/12/07 05:20:09;;;;;;;8.07;2.60;;;2.70;99.90;;;;;;5069313;28;20032;-36
2022/12/07 05:22:35;;;;;;;8.85;2.85;;;2.60;99.90;;;;;;5065900;28;20049;-36
2022/12/07 05:25:01;;;;;;;6.97;2.67;;;2.60;99.90;;;;;;5069782;28;20477;-36
2022/12/07 05:27:27;;;;;;;3.42;1.50;;;2.60;99.90;;;;;;5069954;28;20111;-35
2022/12/07 05:29:52;;;;;;;12.80;5.28;;;2.50;99.90;;;;;;5064611;28;20042;-35
2022/12/07 05:32:18;;;;;;;10.82;4.35;;;2.50;99.90;;;;;;5069923;28;20093;-36
2022/12/07 05:34:44;;;;;;;10.65;3.15;;;2.50;99.90;;;;;;5070037;28;20413;-36
2022/12/07 05:37:10;;;;;;;15.57;6.63;;;2.50;99.90;;;;;;5070215;28;20089;-36
2022/12/07 05:39:37;;;;;;;24.05;8.32;;;2.50;99.90;;;;;;5069831;28;20033;-36
2022/12/07 05:42:12;;;;;;;8.23;3.60;;;2.50;99.90;;;;;;5069828;28;20482;-35
2022/12/07 05:44:43;;;;;;;8.45;3.50;;;2.50;99.90;;;;;;5054770;28;20025;-35
2022/12/07 05:47:09;;;;;;;7.28;2.53;;;2.50;99.90;;;;;;5069704;28;20040;-36
2022/12/07 05:49:35;;;;;;;5.70;2.10;;;2.50;99.90;;;;;;5053258;28;20052;-36
2022/12/07 05:52:01;;;;;;;5.47;1.40;;;2.50;99.90;;;;;;5070134;28;20074;-36
2022/12/07 05:54:26;;;;;;;22.65;7.82;;;2.50;99.90;;;;;;5065981;28;20045;-36
2022/12/07 05:56:52;;;;;;;20.15;9.52;;;2.50;99.90;;;;;;5070695;28;20489;-34
2022/12/07 05:59:24;;;;;;;13.38;6.97;;;2.50;99.90;;;;;;5069663;28;20039;-34
2022/12/07 06:01:56;;;;;;;14.88;5.70;;;2.40;99.90;;;;;;5061655;28;20040;-34
2022/12/07 06:04:23;;;;;;;13.02;7.43;;;2.40;99.90;;;;;;5064630;28;20033;-34
2022/12/07 06:06:49;;;;;;;18.30;10.18;;;2.30;99.90;;;;;;5064112;28;20067;-34
2022/12/07 06:09:15;;;;;;;11.98;6.25;;;2.30;99.90;;;;;;5053540;28;20045;-34
2022/12/07 06:14:25;;;;;;;12.88;5.75;;;2.20;99.90;;;;;;5065181;28;20175;-32
2022/12/07 06:16:51;;;;;;;13.10;6.30;;;2.10;99.90;;;;;;5067225;28;20101;-33
2022/12/07 06:19:17;;;;;;;10.50;4.53;;;2.10;99.90;;;;;;5068850;28;20037;-32
2022/12/07 06:21:44;;;;;;;5.97;3.45;;;2.00;99.90;;;;;;5065630;28;20037;-32
2022/12/07 06:24:14;;;;;;;7.85;3.50;;;2.00;99.90;;;;;;5058242;28;20037;-33
2022/12/07 06:26:40;;;;;;;12.43;5.47;;;1.90;99.90;;;;;;5061068;28;20049;-33
2022/12/07 06:29:06;;;;;;;21.45;7.47;;;1.90;99.90;;;;;;5065886;28;20497;-33
2022/12/07 06:31:32;;;;;;;13.45;6.35;;;1.90;99.90;;;;;;5064041;28;20045;-33
2022/12/07 06:34:04;;;;;;;15.30;6.70;;;1.80;99.90;;;;;;5069117;28;20060;-33
2022/12/07 06:36:30;;;;;;;10.95;5.65;;;1.80;99.90;;;;;;5069681;28;20033;-33
2022/12/07 06:38:56;;;;;;;9.20;3.63;;;1.80;99.90;;;;;;5063719;28;20398;-33
2022/12/07 06:41:23;;;;;;;11.30;5.88;;;1.90;99.90;;;;;;5072297;28;20036;-33
2022/12/07 06:44:04;;;;;;;15.00;4.78;;;1.90;99.90;;;;;;5068231;28;20075;-33
2022/12/07 06:46:29;;;;;;;10.38;3.60;;;1.90;99.90;;;;;;5068767;28;20040;-36
2022/12/07 06:48:56;;;;;;;10.20;4.13;;;2.00;99.90;;;;;;5071687;28;20024;-35
2022/12/07 06:51:23;;;;;;;12.90;5.38;;;2.00;99.90;;;;;;5072591;28;20398;-34
2022/12/07 06:53:49;;;;;;;9.00;2.42;;;2.20;99.90;;;;;;5067421;28;20044;-35
2022/12/07 06:56:15;;;;;;;7.60;2.15;;;2.20;99.90;;;;;;5058328;28;20170;-35
2022/12/07 06:58:41;;;;;;;8.77;1.90;;;2.30;99.90;;;;;;5075042;28;20044;-35
2022/12/07 07:01:12;;;;;;;9.48;2.15;;;2.30;99.90;;;;;;5074206;28;20036;-34
2022/12/07 07:03:38;;;;;;;10.63;2.92;;;2.40;99.90;;;;;;5067324;28;20044;-35
2022/12/07 07:06:05;;;;;;;7.40;1.80;;;2.40;99.90;;;;;;5075460;28;20040;-33
2022/12/07 07:08:30;;;;;;;9.15;1.95;;;2.40;99.90;;;;;;5073557;28;20038;-35
2022/12/07 07:10:56;;;;;;;5.28;1.98;;;2.40;99.90;;;;;;5073418;28;20123;-34
2022/12/07 07:13:23;;;;;;;5.45;1.60;;;2.30;99.90;;;;;;5072945;28;20040;-35
2022/12/07 07:15:49;;;;;;;6.03;1.52;;;2.30;99.90;;;;;;5073370;28;20370;-34
2022/12/07 07:18:14;;;;;;;5.05;1.63;;;2.30;99.90;;;;;;5073317;28;20039;-34
2022/12/07 07:20:40;;;;;;;4.97;1.48;;;2.30;99.90;;;;;;5067359;28;20035;-34
2022/12/07 07:23:07;;;;;;;8.75;2.10;;;2.30;99.90;;;;;;5072154;28;20037;-34
2022/12/07 07:25:32;;;;;;;5.15;1.65;;;2.30;99.90;;;;;;5073338;28;20052;-33
2022/12/07 07:27:59;;;;;;;7.28;1.73;;;2.40;99.90;;;;;;5072651;28;20037;-34
2022/12/07 07:30:25;;;;;;;4.68;1.50;;;2.40;99.90;;;;;;5072164;28;20039;-34
2022/12/07 07:32:50;;;;;;;4.53;1.30;;;2.50;99.90;;;;;;5072880;28;20490;-35
2022/12/07 07:35:16;;;;;;;4.57;1.40;;;2.60;99.90;;;;;;5070852;28;20098;-35
2022/12/07 07:37:42;;;;;;;6.38;1.50;;;2.60;99.90;;;;;;5070769;28;20115;-34
2022/12/07 07:40:09;;;;;;;6.30;1.30;;;2.70;99.90;;;;;;5069918;28;20500;-34
2022/12/07 07:42:35;;;;;;;6.22;1.40;;;2.80;99.90;;;;;;5070671;28;20045;-33
2022/12/07 07:45:00;;;;;;;9.52;1.40;;;2.80;99.90;;;;;;5070200;28;20036;-34
2022/12/07 07:47:26;;;;;;;10.18;3.92;;;2.90;99.90;;;;;;5070762;28;20097;-35
2022/12/07 07:49:52;;;;;;;4.78;2.28;;;2.90;99.90;;;;;;5071800;28;20527;-35
2022/12/07 07:52:18;;;;;;;8.60;2.47;;;2.90;99.90;;;;;;5072431;28;20036;-34
2022/12/07 07:54:43;;;;;;;8.05;1.80;;;2.90;99.90;;;;;;5071169;28;20083;-34
2022/12/07 07:57:09;;;;;;;6.13;1.67;;;2.80;99.90;;;;;;5072256;28;20166;-34
2022/12/07 07:59:35;;;;;;;4.32;1.75;;;2.80;99.90;;;;;;5071973;28;20619;-35
2022/12/07 08:02:00;;;;;;;5.38;1.80;;;2.80;99.90;;;;;;5073458;28;20047;-34
2022/12/07 08:04:26;;;;;;;8.25;3.25;;;2.80;99.90;;;;;;5072160;28;20054;-34
2022/12/07 08:06:52;;;;;;;8.20;1.85;;;2.70;99.90;;;;;;5071886;28;20460;-33
2022/12/07 08:09:18;;;;;;;5.25;1.73;;;2.70;99.90;;;;;;5072101;28;20040;-34
2022/12/07 08:11:45;;;;;;;7.75;2.50;;;2.70;99.90;;;;;;5055718;28;20390;-34
2022/12/07 08:14:11;;;;;;;5.85;1.73;;;2.80;99.90;;;;;;5071957;28;20033;-34
2022/12/07 08:16:37;;;;;;;5.95;1.98;;;2.80;99.90;;;;;;5071924;28;20452;-35
2022/12/07 08:19:05;;;;;;;6.80;1.65;;;2.80;99.90;;;;;;5071496;28;20045;-35
2022/12/07 08:21:31;;;;;;;12.05;2.28;;;2.90;99.90;;;;;;5071938;28;20440;-34
2022/12/07 08:23:57;;;;;;;3.95;1.80;;;3.00;99.90;;;;;;5071879;28;20036;-35
2022/12/07 08:26:23;;;;;;;4.95;1.80;;;3.10;99.90;;;;;;5071743;28;20043;-34
2022/12/07 08:28:49;;;;;;;10.82;2.45;;;3.10;99.90;;;;;;5072592;28;20494;-34
2022/12/07 08:31:18;;;;;;;8.38;2.20;;;3.20;99.90;;;;;;5071455;28;20040;-34
2022/12/07 08:33:48;;;;;;;6.22;1.85;;;3.30;99.90;;;;;;5071285;28;20055;-35
2022/12/07 08:36:14;;;;;;;10.48;1.95;;;3.30;99.90;;;;;;5071887;28;20045;-34
2022/12/07 08:38:41;;;;;;;7.63;1.85;;;3.30;99.90;;;;;;5071675;28;20386;-33
2022/12/07 08:41:08;;;;;;;8.77;2.10;;;3.30;99.90;;;;;;5071466;28;20479;-35
2022/12/07 08:43:34;;;;;;;4.15;1.50;;;3.40;99.90;;;;;;5073137;28;20043;-35
2022/12/07 08:46:21;;;;;;;10.55;1.73;;;3.30;99.90;;;;;;5071408;28;20040;-35
2022/12/07 08:48:57;;;;;;;6.90;1.50;;;3.30;99.90;;;;;;5068278;28;20119;-33
2022/12/07 08:51:24;;;;;;;4.25;1.30;;;3.20;99.90;;;;;;5061022;28;20045;-34
2022/12/07 08:53:51;;;;;;;4.70;1.35;;;3.10;99.90;;;;;;5066642;28;20512;-34
2022/12/07 08:56:17;;;;;;;5.20;1.50;;;3.10;99.90;;;;;;5071452;28;20501;-33
2022/12/07 08:58:43;;;;;;;6.07;1.40;;;3.00;99.90;;;;;;5070894;28;20032;-34
2022/12/07 09:01:09;;;;;;;14.43;5.47;;;3.10;99.90;;;;;;5071293;28;20032;-34
2022/12/07 09:03:35;;;;;;;7.32;1.80;;;3.00;99.90;;;;;;5070857;28;20485;-34
2022/12/07 09:06:01;;;;;;;9.20;2.17;;;3.10;99.90;;;;;;5071288;28;20110;-36
2022/12/07 09:08:31;;;;;;;5.30;1.60;;;3.20;99.90;;;;;;5053731;28;20040;-35
2022/12/07 09:10:56;;;;;;;6.38;2.03;;;3.40;99.90;;;;;;5071012;28;20048;-35
2022/12/07 09:13:22;;;;;;;4.75;1.40;;;3.70;99.90;;;;;;5070991;28;20579;-35
2022/12/07 09:15:48;;;;;;;7.18;1.90;;;3.90;99.90;;;;;;5071328;28;20120;-34
2022/12/07 09:18:14;;;;;;;8.38;2.25;;;4.10;99.90;;;;;;5070608;28;20409;-34
2022/12/07 09:20:40;;;;;;;11.00;3.65;;;4.20;99.90;;;;;;5058900;28;20040;-34
2022/12/07 09:23:06;;;;;;;5.85;1.80;;;4.20;99.90;;;;;;5084717;28;20036;-34
2022/12/07 09:25:33;;;;;;;10.82;3.17;;;4.20;99.90;;;;;;5070631;28;20055;-34
2022/12/07 09:27:59;;;;;;;4.65;1.88;;;4.10;99.90;;;;;;5070779;28;20047;-34
2022/12/07 09:30:26;;;;;;;5.22;2.38;;;4.20;99.90;;;;;;5070557;28;20494;-34
2022/12/07 09:32:56;;;;;;;6.43;2.78;;;4.30;99.90;;;;;;5070787;28;20079;-35
2022/12/07 09:35:25;;;;;;;11.43;2.92;;;4.60;99.90;;;;;;5068307;28;20041;-34
2022/12/07 09:37:51;;;;;;;5.05;2.30;;;4.80;99.90;;;;;;5070741;28;20511;-35
2022/12/07 09:40:19;;;;;;;7.38;2.03;;;5.30;99.90;;;;;;5070721;28;20115;-34
2022/12/07 09:42:49;;;;;;;10.43;3.85;;;5.50;99.90;;;;;;5070875;28;20454;-35
2022/12/07 09:45:20;;;;;;;6.00;2.28;;;5.40;99.90;;;;;;5071779;28;20499;-34
2022/12/07 09:47:46;;;;;;;5.68;2.00;;;5.70;99.90;;;;;;5070405;28;20043;-34
2022/12/07 09:50:16;;;;;;;4.47;1.58;;;6.50;99.90;;;;;;5070475;28;20025;-34
2022/12/07 09:52:44;;;;;;;4.50;1.38;;;7.10;99.90;;;;;;5070531;28;20294;-35
2022/12/07 09:55:15;;;;;;;6.60;2.92;;;7.40;99.90;;;;;;5070812;28;20506;-35
2022/12/07 09:57:42;;;;;;;3.22;1.33;;;7.80;99.90;;;;;;5070382;28;20111;-34
2022/12/07 10:00:22;;;;;;;6.70;1.40;;;8.20;99.90;;;;;;5070311;28;20043;-35
2022/12/07 10:03:00;;;;;;;2.80;1.27;;;8.60;99.90;;;;;;5070592;28;20505;-35
2022/12/07 10:05:36;;;;;;;3.67;1.00;;;8.80;99.90;;;;;;5057340;28;20096;-35
2022/12/07 10:08:03;;;;;;;4.10;1.30;;;9.00;99.90;;;;;;5060995;28;20037;-35
2022/12/07 10:10:34;;;;;;;5.97;1.45;;;8.60;99.90;;;;;;5074506;28;20478;-34
2022/12/07 10:13:02;;;;;;;5.55;1.33;;;8.20;99.90;;;;;;5072944;28;20037;-34
2022/12/07 10:15:46;;;;;;;3.97;1.40;;;7.70;99.90;;;;;;5074564;28;20041;-35
2022/12/07 10:18:24;;;;;;;5.68;1.20;;;7.20;99.90;;;;;;5075379;28;20447;-37
2022/12/07 10:21:07;;;;;;;6.50;1.35;;;6.90;99.90;;;;;;5067384;28;20039;-35
2022/12/07 10:23:34;;;;;;;6.53;1.85;;;6.70;99.90;;;;;;5071932;28;20401;-35
2022/12/07 10:26:19;;;;;;;4.60;1.60;;;6.40;99.90;;;;;;5073749;28;20032;-34
2022/12/07 10:28:44;;;;;;;7.35;2.13;;;6.20;99.90;;;;;;5058863;28;20045;-33
2022/12/07 10:31:20;;;;;;;6.03;1.85;;;6.00;99.90;;;;;;5073642;28;20094;-33
2022/12/07 10:33:58;;;;;;;8.38;2.05;;;5.90;99.90;;;;;;5066644;28;20076;-33
2022/12/07 10:36:27;;;;;;;5.55;1.52;;;5.70;99.90;;;;;;5068923;28;20041;-33
2022/12/07 10:39:14;;;;;;;4.07;1.45;;;5.60;99.90;;;;;;5073532;28;20033;-33
2022/12/07 10:42:20;;;;;;;8.95;2.40;;;5.60;99.90;;;;;;5071641;28;20094;-33
2022/12/07 10:44:47;;;;;;;7.07;1.83;;;5.70;99.90;;;;;;5058479;28;20045;-34
2022/12/07 10:47:22;;;;;;;6.30;1.55;;;5.70;99.90;;;;;;5073509;28;20036;-33
2022/12/07 10:50:25;;;;;;;4.40;1.65;;;5.70;99.90;;;;;;5066452;28;20474;-33
2022/12/07 10:53:18;;;;;;;3.58;1.35;;;5.80;99.90;;;;;;5063345;28;20036;-33
2022/12/07 10:56:03;;;;;;;5.57;1.90;;;5.80;99.90;;;;;;5074106;28;20045;-33
2022/12/07 10:58:34;;;;;;;5.45;1.75;;;5.80;99.90;;;;;;5065020;28;20139;-34
2022/12/07 11:01:22;;;;;;;5.78;1.88;;;5.80;99.90;;;;;;5073352;28;20037;-33
2022/12/07 11:04:13;;;;;;;6.03;1.75;;;6.00;99.90;;;;;;5066437;28;20337;-33
2022/12/07 11:07:27;;;;;;;7.40;2.30;;;6.10;99.90;;;;;;5071472;28;20044;-34
2022/12/07 11:09:59;;;;;;;4.90;2.10;;;6.60;99.90;;;;;;5056423;28;20048;-34
2022/12/07 11:12:53;;;;;;;6.20;1.95;;;7.40;99.90;;;;;;5089671;28;20032;-33
2022/12/07 11:15:31;;;;;;;7.38;1.85;;;8.10;99.90;;;;;;5069341;28;20039;-34
2022/12/07 11:18:00;;;;;;;5.78;1.50;;;8.10;99.90;;;;;;5073184;28;20032;-35
2022/12/07 11:20:50;;;;;;;4.22;1.27;;;8.00;99.90;;;;;;5072788;28;20040;-33
2022/12/07 11:23:51;;;;;;;6.40;1.80;;;7.70;99.90;;;;;;5055823;28;20040;-33
2022/12/07 11:26:26;;;;;;;5.10;2.13;;;7.70;99.90;;;;;;5072263;28;20071;-33
2022/12/07 11:29:13;;;;;;;4.88;1.48;;;7.60;99.90;;;;;;5072901;28;20041;-33
2022/12/07 11:32:06;;;;;;;4.30;1.33;;;7.50;99.90;;;;;;5072288;28;20043;-33
2022/12/07 11:34:52;;;;;;;4.07;1.30;;;7.40;99.90;;;;;;5066571;28;20036;-34
2022/12/07 11:37:23;;;;;;;4.53;1.58;;;7.20;99.90;;;;;;5071023;28;20111;-34
2022/12/07 11:40:08;;;;;;;4.25;1.35;;;7.10;99.90;;;;;;5072231;28;20409;-34
2022/12/07 11:42:39;;;;;;;4.97;1.38;;;7.00;99.90;;;;;;5072495;28;20409;-34
2022/12/07 11:45:28;;;;;;;5.53;1.75;;;6.90;99.90;;;;;;5072606;28;20489;-34
2022/12/07 11:48:01;;;;;;;5.65;1.27;;;6.90;99.90;;;;;;5070989;28;20375;-34
2022/12/07 11:50:40;;;;;;;7.32;1.40;;;6.80;99.90;;;;;;5067413;28;20381;-33
2022/12/07 11:53:09;;;;;;;3.42;1.42;;;6.80;99.90;;;;;;5072321;28;20066;-34
2022/12/07 11:55:58;;;;;;;7.05;1.98;;;6.90;99.90;;;;;;5072256;28;20048;-34
2022/12/07 11:58:33;;;;;;;5.22;1.50;;;7.00;99.90;;;;;;5072243;28;20037;-33
2022/12/07 12:01:34;;;;;;;3.97;1.40;;;7.00;99.90;;;;;;5064477;28;20064;-33
2022/12/07 12:04:08;;;;;;;4.00;1.08;;;7.10;99.90;;;;;;5065343;28;20401;-34
2022/12/07 12:06:35;;;;;;;4.55;1.23;;;7.00;99.90;;;;;;5072400;28;20086;-34
2022/12/07 12:09:05;;;;;;;4.47;1.52;;;7.00;99.90;;;;;;5071971;28;20040;-34
2022/12/07 12:11:43;;;;;;;5.43;1.50;;;6.90;99.90;;;;;;5070859;28;20040;-34
2022/12/07 12:14:27;;;;;;;5.03;1.40;;;6.90;99.90;;;;;;5071648;28;20363;-33
2022/12/07 12:17:02;;;;;;;4.78;1.60;;;6.90;99.90;;;;;;5071946;28;20036;-34
2022/12/07 12:20:03;;;;;;;7.00;1.88;;;7.00;99.90;;;;;;5071364;28;20127;-33
2022/12/07 12:22:45;;;;;;;5.00;1.45;;;7.10;99.90;;;;;;5071534;28;20120;-33
2022/12/07 12:25:31;;;;;;;3.15;1.20;;;7.10;99.90;;;;;;5058812;28;20066;-33
2022/12/07 12:27:59;;;;;;;3.40;1.17;;;7.20;99.90;;;;;;5067250;28;20043;-34
2022/12/07 12:30:32;;;;;;;4.20;1.20;;;7.30;99.90;;;;;;5071310;28;20125;-34
2022/12/07 12:33:05;;;;;;;4.68;1.30;;;7.20;99.90;;;;;;5071686;28;20126;-33
2022/12/07 12:35:36;;;;;;;5.15;1.35;;;7.20;99.90;;;;;;5071369;28;20078;-34
2022/12/07 12:38:33;;;;;;;6.93;1.85;;;7.30;99.90;;;;;;5070908;28;20040;-34
2022/12/07 12:41:00;;;;;;;7.90;1.67;;;7.30;99.90;;;;;;5067172;28;20047;-33
2022/12/07 12:43:48;;;;;;;6.10;1.73;;;7.10;99.90;;;;;;5071159;28;20045;-34
2022/12/07 12:46:30;;;;;;;8.65;1.60;;;7.10;99.90;;;;;;5071574;28;20558;-33
2022/12/07 12:49:17;;;;;;;6.20;1.27;;;7.10;99.90;;;;;;5070949;28;20477;-33
2022/12/07 12:51:48;;;;;;;8.00;1.60;;;7.10;99.90;;;;;;5071024;28;20045;-34
2022/12/07 12:54:18;;;;;;;7.85;1.77;;;7.10;99.90;;;;;;5067840;28;20025;-34
2022/12/07 12:57:04;;;;;;;6.95;1.50;;;7.10;99.90;;;;;;5065077;28;20187;-34
2022/12/07 12:59:32;;;;;;;7.03;1.98;;;7.00;99.90;;;;;;5069347;28;20035;-33
2022/12/07 13:02:19;;;;;;;7.05;1.60;;;7.10;99.90;;;;;;5070577;28;20119;-33
2022/12/07 13:04:53;;;;;;;7.35;1.63;;;7.00;99.90;;;;;;5071055;28;20032;-34
2022/12/07 13:07:44;;;;;;;6.10;1.35;;;7.10;99.90;;;;;;5070293;28;20040;-34
2022/12/07 13:10:28;;;;;;;8.25;1.92;;;7.10;99.90;;;;;;5070738;28;20044;-34
2022/12/07 13:13:09;;;;;;;7.80;1.60;;;7.10;99.90;;;;;;5047745;28;20048;-33
2022/12/07 13:15:50;;;;;;;5.10;1.88;;;7.10;99.90;;;;;;5070170;28;20052;-33
2022/12/07 13:18:28;;;;;;;4.47;1.50;;;7.10;99.90;;;;;;5070607;28;20093;-33
2022/12/07 13:21:00;;;;;;;4.88;1.30;;;7.20;99.90;;;;;;5070237;28;20115;-33